createdAt,value
2019-03-10T00:01:49.632Z,8.35
2019-03-10T00:04:19.987Z,8.28
2019-03-10T00:06:51.326Z,9.65
2019-03-10T00:09:21.677Z,7.08
2019-03-10T00:11:52.045Z,8.18
2019-03-10T00:14:22.393Z,7.72
2019-03-10T00:16:52.766Z,7.92
2019-03-10T00:19:23.121Z,9.15
2019-03-10T00:21:53.497Z,11.28
2019-03-10T00:24:23.855Z,4.17
2019-03-10T00:26:54.234Z,9.45
2019-03-10T00:29:24.593Z,10.08
2019-03-10T00:31:54.963Z,9.38
2019-03-10T00:34:25.340Z,9.28
2019-03-10T00:36:55.692Z,7.20
2019-03-10T00:39:33.428Z,7.30
2019-03-10T00:42:26.145Z,5.67
2019-03-10T00:45:39.083Z,8.23
2019-03-10T00:48:29.425Z,5.85
2019-03-10T00:51:39.912Z,7.72
2019-03-10T00:54:10.269Z,15.50
2019-03-10T00:56:40.643Z,7.85
2019-03-10T00:59:10.997Z,7.75
2019-03-10T01:01:41.363Z,9.03
2019-03-10T01:04:11.723Z,9.50
2019-03-10T01:06:42.173Z,5.37
2019-03-10T01:09:12.522Z,9.80
2019-03-10T01:11:42.898Z,13.80
2019-03-10T01:14:14.564Z,10.50
2019-03-10T01:16:46.123Z,10.95
2019-03-10T01:19:19.160Z,7.70
2019-03-10T01:21:50.679Z,7.08
2019-03-10T01:24:21.034Z,9.85
2019-03-10T01:26:51.408Z,7.35
2019-03-10T01:29:21.758Z,6.22
2019-03-10T01:32:18.011Z,8.08
2019-03-10T01:35:07.814Z,10.55
2019-03-10T01:37:38.181Z,8.40
2019-03-10T01:40:09.131Z,9.33
2019-03-10T01:42:39.589Z,10.35
2019-03-10T01:45:13.242Z,7.50
2019-03-10T01:47:43.617Z,6.67
2019-03-10T01:50:15.132Z,7.67
2019-03-10T01:52:45.509Z,4.67
2019-03-10T01:55:15.872Z,8.03
2019-03-10T01:57:46.246Z,6.70
2019-03-10T02:00:18.098Z,8.65
2019-03-10T02:02:48.468Z,15.23
2019-03-10T02:05:18.826Z,14.07
2019-03-10T02:07:49.197Z,6.17
2019-03-10T02:10:19.557Z,11.12
2019-03-10T02:12:49.934Z,14.07
2019-03-10T02:15:20.361Z,7.80
2019-03-10T02:17:50.734Z,6.87
2019-03-10T02:20:21.076Z,8.68
2019-03-10T02:22:51.464Z,12.07
2019-03-10T02:25:41.144Z,9.18
2019-03-10T02:28:11.518Z,11.93
2019-03-10T02:30:41.882Z,8.18
2019-03-10T02:33:12.253Z,4.08
2019-03-10T02:35:42.602Z,11.83
2019-03-10T02:38:12.974Z,6.72
2019-03-10T02:40:43.640Z,10.43
2019-03-10T02:43:14.080Z,7.78
2019-03-10T02:45:44.425Z,10.58
2019-03-10T02:48:14.798Z,7.20
2019-03-10T02:50:45.142Z,9.55
2019-03-10T02:53:15.511Z,13.70
2019-03-10T02:55:45.861Z,7.87
2019-03-10T02:58:16.308Z,8.80
2019-03-10T03:00:46.650Z,10.70
2019-03-10T03:03:17.024Z,9.20
2019-03-10T03:05:47.377Z,5.78
2019-03-10T03:08:18.138Z,7.37
2019-03-10T03:10:48.487Z,10.65
2019-03-10T03:13:18.866Z,7.37
2019-03-10T03:15:49.222Z,8.68
2019-03-10T03:18:19.599Z,7.80
2019-03-10T03:20:49.962Z,7.75
2019-03-10T03:23:20.341Z,7.40
2019-03-10T03:25:50.692Z,8.68
2019-03-10T03:28:21.066Z,8.95
2019-03-10T03:30:51.417Z,7.90
2019-03-10T03:33:21.786Z,9.23
2019-03-10T03:35:59.098Z,11.80
2019-03-10T03:38:51.881Z,10.53
2019-03-10T03:41:26.423Z,10.65
2019-03-10T03:43:56.800Z,10.35
2019-03-10T03:46:27.202Z,8.03
2019-03-10T03:48:57.543Z,9.23
2019-03-10T03:51:27.878Z,14.03
2019-03-10T03:53:58.259Z,8.63
2019-03-10T03:56:28.614Z,11.35
2019-03-10T03:58:58.986Z,16.95
2019-03-10T04:01:49.262Z,12.58
2019-03-10T04:04:19.722Z,10.05
2019-03-10T04:06:50.056Z,8.93
2019-03-10T04:09:20.428Z,14.30
2019-03-10T04:11:50.782Z,10.15
2019-03-10T04:14:21.162Z,15.43
2019-03-10T04:16:51.515Z,13.15
2019-03-10T04:19:21.893Z,12.45
2019-03-10T04:21:52.263Z,14.58
2019-03-10T04:24:22.630Z,16.50
2019-03-10T04:26:53.037Z,11.68
2019-03-10T04:29:23.411Z,10.70
2019-03-10T04:31:53.767Z,12.82
2019-03-10T04:34:24.137Z,9.18
2019-03-10T04:36:54.496Z,9.20
2019-03-10T04:39:24.874Z,13.35
2019-03-10T04:41:55.289Z,10.88
2019-03-10T04:44:25.670Z,9.30
2019-03-10T04:46:56.025Z,11.25
2019-03-10T04:49:26.405Z,15.40
2019-03-10T04:51:56.754Z,12.03
2019-03-10T04:54:44.987Z,15.68
2019-03-10T04:57:17.205Z,12.47
2019-03-10T04:59:47.577Z,15.32
2019-03-10T05:02:17.945Z,15.72
2019-03-10T05:04:48.318Z,12.50
2019-03-10T05:07:18.679Z,12.73
2019-03-10T05:09:49.057Z,14.15
2019-03-10T05:12:19.412Z,11.48
2019-03-10T05:14:49.790Z,16.02
2019-03-10T05:17:21.113Z,12.03
2019-03-10T05:19:51.491Z,11.63
2019-03-10T05:22:21.848Z,12.73
2019-03-10T05:24:52.227Z,12.40
2019-03-10T05:27:22.584Z,13.03
2019-03-10T05:29:52.966Z,16.30
2019-03-10T05:32:23.313Z,14.07
2019-03-10T05:34:53.695Z,14.20
2019-03-10T05:37:24.046Z,12.18
2019-03-10T05:39:54.424Z,12.40
2019-03-10T05:42:24.777Z,14.78
2019-03-10T05:44:55.154Z,13.25
2019-03-10T05:47:25.509Z,14.53
2019-03-10T05:49:55.881Z,12.33
2019-03-10T05:52:26.244Z,12.43
2019-03-10T05:54:56.790Z,11.53
2019-03-10T05:57:46.482Z,14.23
2019-03-10T06:00:16.853Z,15.00
2019-03-10T06:02:47.205Z,11.55
2019-03-10T06:05:17.601Z,14.33
2019-03-10T06:07:47.940Z,14.98
2019-03-10T06:10:18.324Z,11.88
2019-03-10T06:12:48.675Z,13.93
2019-03-10T06:15:20.117Z,14.93
2019-03-10T06:17:51.439Z,10.55
2019-03-10T06:20:21.810Z,14.40
2019-03-10T06:22:52.236Z,13.18
2019-03-10T06:25:22.621Z,9.80
2019-03-10T06:27:53.028Z,9.68
2019-03-10T06:30:23.403Z,9.75
2019-03-10T06:32:53.750Z,10.70
2019-03-10T06:35:24.133Z,11.10
2019-03-10T06:37:54.521Z,12.25
2019-03-10T06:40:32.026Z,8.90
2019-03-10T06:42:57.936Z,9.18
2019-03-10T06:45:28.317Z,13.13
2019-03-10T06:47:58.669Z,11.05
2019-03-10T06:50:29.056Z,12.80
2019-03-10T06:52:59.413Z,12.03
2019-03-10T06:55:29.786Z,11.48
2019-03-10T06:58:00.141Z,8.13
2019-03-10T07:00:30.512Z,11.63
2019-03-10T07:03:00.868Z,9.93
2019-03-10T07:05:31.246Z,15.18
2019-03-10T07:08:01.608Z,13.70
2019-03-10T07:10:32.061Z,9.83
2019-03-10T07:13:02.420Z,10.13
2019-03-10T07:15:32.839Z,13.15
2019-03-10T07:18:03.296Z,9.73
2019-03-10T07:20:33.676Z,8.40
2019-03-10T07:23:05.693Z,9.73
2019-03-10T07:25:36.041Z,12.03
2019-03-10T07:28:23.404Z,10.55
2019-03-10T07:31:07.423Z,10.63
2019-03-10T07:33:39.418Z,12.23
2019-03-10T07:36:11.428Z,9.65
2019-03-10T07:38:52.693Z,14.80
2019-03-10T07:41:33.549Z,11.48
2019-03-10T07:44:17.480Z,10.13
2019-03-10T07:46:49.502Z,12.73
2019-03-10T07:49:36.384Z,14.87
2019-03-10T07:52:25.955Z,13.62
2019-03-10T07:55:00.935Z,9.63
2019-03-10T07:57:34.017Z,12.50
2019-03-10T08:00:10.905Z,15.38
2019-03-10T08:02:51.851Z,11.88
2019-03-10T08:05:23.855Z,11.63
2019-03-10T08:08:13.537Z,11.00
2019-03-10T08:10:54.696Z,10.35
2019-03-10T08:13:52.889Z,12.68
2019-03-10T08:16:27.796Z,9.80
2019-03-10T08:21:59.395Z,11.70
2019-03-10T08:24:31.405Z,11.68
2019-03-10T08:27:12.507Z,11.83
2019-03-10T08:29:53.669Z,9.13
2019-03-10T08:32:42.087Z,9.98
2019-03-10T08:35:20.303Z,11.73
2019-03-10T08:37:52.334Z,10.48
2019-03-10T08:40:30.027Z,9.90
2019-03-10T08:43:04.430Z,8.05
2019-03-10T08:45:36.440Z,6.55
2019-03-10T08:48:11.390Z,11.20
2019-03-10T08:50:59.875Z,11.05
2019-03-10T08:53:43.543Z,11.43
2019-03-10T08:56:24.817Z,8.03
2019-03-10T08:59:06.120Z,11.33
2019-03-10T09:01:54.501Z,9.68
2019-03-10T09:04:29.676Z,11.00
2019-03-10T09:07:17.848Z,12.30
2019-03-10T09:10:05.992Z,13.65
2019-03-10T09:12:54.467Z,8.38
2019-03-10T09:15:42.667Z,10.25
2019-03-10T09:18:23.620Z,9.88
2019-03-10T09:20:55.615Z,7.08
2019-03-10T09:23:27.640Z,8.63
2019-03-10T09:26:02.547Z,12.18
2019-03-10T09:28:40.517Z,10.72
2019-03-10T09:31:30.849Z,8.08
2019-03-10T09:34:02.876Z,10.45
2019-03-10T09:36:40.571Z,9.63
2019-03-10T09:39:24.975Z,10.03
2019-03-10T09:45:13.366Z,11.20
2019-03-10T09:47:48.306Z,9.60
2019-03-10T09:50:35.613Z,13.03
2019-03-10T09:53:23.654Z,13.65
2019-03-10T09:56:10.934Z,17.30
2019-03-10T09:58:54.870Z,12.80
2019-03-10T10:01:43.188Z,9.40
2019-03-10T10:04:17.848Z,8.30
2019-03-10T10:07:01.986Z,15.75
2019-03-10T10:09:36.896Z,17.02
2019-03-10T10:12:13.547Z,12.23
2019-03-10T10:14:42.627Z,14.35
2019-03-10T10:17:31.083Z,11.50
2019-03-10T10:20:11.811Z,16.12
2019-03-10T10:22:43.815Z,12.93
2019-03-10T10:25:27.735Z,10.58
2019-03-10T10:27:59.819Z,16.40
2019-03-10T10:30:40.769Z,13.43
2019-03-10T10:33:15.545Z,14.50
2019-03-10T10:35:50.498Z,21.33
2019-03-10T10:38:28.685Z,18.82
2019-03-10T10:41:13.049Z,14.93
2019-03-10T10:43:48.060Z,12.80
2019-03-10T10:46:20.058Z,13.70
2019-03-10T10:49:01.095Z,26.50
2019-03-10T10:51:49.502Z,19.62
2019-03-10T10:54:45.981Z,18.20
2019-03-10T10:57:23.704Z,14.07
2019-03-10T10:59:58.685Z,14.13
2019-03-10T11:02:36.367Z,16.95
2019-03-10T11:05:25.069Z,15.00
2019-03-10T11:07:58.331Z,14.70
2019-03-10T11:10:34.405Z,13.75
2019-03-10T11:13:15.444Z,13.30
2019-03-10T11:15:50.399Z,8.83
2019-03-10T11:18:34.198Z,9.10
2019-03-10T11:21:13.578Z,10.50
2019-03-10T11:23:45.575Z,7.05
2019-03-10T11:26:35.652Z,9.15
2019-03-10T11:29:07.675Z,8.63
2019-03-10T11:31:42.345Z,8.45
2019-03-10T11:34:30.299Z,5.90
2019-03-10T11:37:18.664Z,6.05
2019-03-10T11:39:53.676Z,4.58
2019-03-10T11:42:25.628Z,4.65
2019-03-10T11:45:00.588Z,4.20
2019-03-10T11:47:49.049Z,6.30
2019-03-10T11:50:37.916Z,6.25
2019-03-10T11:53:19.035Z,9.08
2019-03-10T11:55:46.561Z,6.35
2019-03-10T11:58:24.191Z,9.58
2019-03-10T12:00:58.607Z,8.95
2019-03-10T12:03:33.404Z,7.78
2019-03-10T12:06:22.885Z,11.53
2019-03-10T12:09:09.950Z,11.93
2019-03-10T12:11:40.335Z,8.10
2019-03-10T12:14:10.673Z,8.23
2019-03-10T12:16:41.053Z,9.48
2019-03-10T12:19:11.435Z,11.75
2019-03-10T12:21:41.825Z,10.98
2019-03-10T12:24:12.168Z,12.13
2019-03-10T12:26:42.629Z,9.93
2019-03-10T12:29:13.011Z,10.43
2019-03-10T12:31:43.379Z,9.50
2019-03-10T12:34:13.728Z,11.28
2019-03-10T12:36:45.125Z,10.28
2019-03-10T12:39:17.115Z,7.35
2019-03-10T12:41:57.863Z,8.48
2019-03-10T12:44:19.822Z,7.15
2019-03-10T12:46:50.198Z,8.08
2019-03-10T12:49:20.603Z,6.15
2019-03-10T12:51:50.976Z,12.50
2019-03-10T12:54:21.401Z,8.65
2019-03-10T12:56:51.776Z,8.60
2019-03-10T12:59:22.166Z,7.62
2019-03-10T13:01:52.530Z,6.72
2019-03-10T13:04:22.881Z,9.73
2019-03-10T13:06:53.257Z,8.63
2019-03-10T13:09:23.599Z,8.33
2019-03-10T13:11:53.971Z,8.80
2019-03-10T13:14:24.323Z,9.13
2019-03-10T13:16:54.706Z,7.78
2019-03-10T13:19:25.051Z,6.12
2019-03-10T13:21:55.426Z,5.47
2019-03-10T13:24:25.774Z,7.20
2019-03-10T13:26:56.150Z,8.35
2019-03-10T13:29:26.495Z,7.70
2019-03-10T13:31:56.872Z,6.53
2019-03-10T13:34:28.195Z,7.70
2019-03-10T13:36:58.580Z,10.55
2019-03-10T13:39:28.984Z,6.55
2019-03-10T13:41:59.372Z,8.48
2019-03-10T13:44:29.723Z,5.70
2019-03-10T13:47:00.104Z,6.42
2019-03-10T13:49:30.490Z,7.22
2019-03-10T13:52:00.874Z,5.47
2019-03-10T13:54:31.226Z,6.25
2019-03-10T13:57:01.614Z,7.28
2019-03-10T13:59:31.947Z,5.42
2019-03-10T14:02:03.399Z,6.05
2019-03-10T14:04:33.744Z,5.87
2019-03-10T14:07:04.397Z,9.83
2019-03-10T14:09:34.736Z,7.17
2019-03-10T14:12:05.189Z,10.30
2019-03-10T14:14:35.608Z,7.97
2019-03-10T14:17:05.975Z,9.33
2019-03-10T14:19:36.332Z,12.37
2019-03-10T14:22:06.713Z,8.40
2019-03-10T14:24:37.066Z,8.25
2019-03-10T14:27:07.518Z,8.95
2019-03-10T14:29:37.859Z,8.75
2019-03-10T14:32:08.235Z,9.25
2019-03-10T14:34:38.583Z,7.45
2019-03-10T14:37:08.957Z,7.92
2019-03-10T14:39:39.300Z,6.37
2019-03-10T14:42:09.672Z,5.80
2019-03-10T14:44:40.024Z,7.10
2019-03-10T14:47:10.393Z,4.62
2019-03-10T14:49:40.742Z,5.20
2019-03-10T14:52:11.129Z,5.30
2019-03-10T14:54:41.475Z,4.67
2019-03-10T14:57:11.858Z,4.05
2019-03-10T14:59:42.203Z,11.22
2019-03-10T15:02:12.581Z,10.72
2019-03-10T15:04:42.939Z,6.70
2019-03-10T15:07:13.324Z,5.67
2019-03-10T15:09:43.675Z,5.42
2019-03-10T15:12:14.057Z,6.80
2019-03-10T15:14:44.401Z,9.28
2019-03-10T15:17:14.780Z,8.05
2019-03-10T15:19:45.197Z,7.95
2019-03-10T15:22:15.567Z,8.00
2019-03-10T15:24:45.922Z,10.18
2019-03-10T15:27:23.351Z,6.28
2019-03-10T15:29:48.347Z,7.33
2019-03-10T15:32:18.734Z,9.38
2019-03-10T15:34:49.086Z,8.28
2019-03-10T15:37:19.467Z,7.80
2019-03-10T15:39:49.818Z,8.40
2019-03-10T15:42:20.194Z,8.23
2019-03-10T15:44:50.587Z,9.45
2019-03-10T15:47:20.960Z,9.75
2019-03-10T15:49:51.340Z,11.35
2019-03-10T15:52:21.722Z,12.07
2019-03-10T15:54:52.079Z,13.85
2019-03-10T15:57:22.462Z,9.40
2019-03-10T15:59:52.818Z,9.75
2019-03-10T16:02:23.187Z,7.37
2019-03-10T16:04:53.585Z,8.78
2019-03-10T16:07:23.971Z,7.35
2019-03-10T16:09:54.317Z,8.60
2019-03-10T16:12:24.700Z,6.85
2019-03-10T16:14:55.053Z,7.72
2019-03-10T16:17:25.435Z,7.30
2019-03-10T16:19:55.781Z,6.95
2019-03-10T16:22:26.156Z,8.25
2019-03-10T16:24:56.511Z,7.90
2019-03-10T16:27:26.885Z,10.35
2019-03-10T16:30:10.606Z,7.70
2019-03-10T16:32:40.986Z,7.92
2019-03-10T16:35:11.502Z,9.75
2019-03-10T16:37:41.877Z,7.05
2019-03-10T16:40:15.507Z,6.92
2019-03-10T16:42:46.112Z,8.58
2019-03-10T16:45:21.416Z,7.00
2019-03-10T16:47:51.794Z,7.67
2019-03-10T16:50:29.851Z,10.45
2019-03-10T16:53:00.232Z,8.58
2019-03-10T16:55:30.579Z,9.80
2019-03-10T16:58:00.962Z,10.40
2019-03-10T17:00:31.306Z,12.55
2019-03-10T17:03:01.683Z,12.80
2019-03-10T17:05:32.036Z,12.75
2019-03-10T17:08:02.487Z,9.93
2019-03-10T17:10:32.836Z,6.00
2019-03-10T17:13:03.213Z,4.55
2019-03-10T17:15:33.559Z,3.50
2019-03-10T17:18:04.004Z,1.87
2019-03-10T17:20:34.349Z,3.08
2019-03-10T17:23:04.732Z,3.25
2019-03-10T17:25:35.076Z,3.83
2019-03-10T17:28:05.632Z,3.58
2019-03-10T17:30:35.980Z,4.47
2019-03-10T17:33:06.361Z,5.53
2019-03-10T17:35:36.716Z,4.40
2019-03-10T17:38:07.086Z,3.87
2019-03-10T17:40:37.436Z,4.53
2019-03-10T17:43:08.138Z,7.00
2019-03-10T17:45:38.539Z,7.42
2019-03-10T17:48:08.987Z,8.73
2019-03-10T17:50:39.343Z,7.55
2019-03-10T17:53:09.720Z,7.87
2019-03-10T17:55:40.071Z,6.60
2019-03-10T17:58:10.443Z,8.03
2019-03-10T18:00:40.963Z,4.15
2019-03-10T18:03:11.346Z,4.15
2019-03-10T18:05:41.697Z,7.78
2019-03-10T18:08:12.063Z,5.60
2019-03-10T18:10:42.418Z,3.92
2019-03-10T18:13:12.795Z,3.65
2019-03-10T18:15:43.147Z,5.40
2019-03-10T18:18:13.520Z,4.75
2019-03-10T18:20:43.861Z,6.00
2019-03-10T18:23:14.227Z,7.05
2019-03-10T18:25:44.571Z,6.92
2019-03-10T18:28:14.950Z,8.33
2019-03-10T18:30:45.292Z,7.72
2019-03-10T18:33:15.659Z,6.60
2019-03-10T18:35:46.010Z,8.78
2019-03-10T18:38:16.385Z,7.47
2019-03-10T18:40:46.738Z,7.22
2019-03-10T18:43:17.123Z,6.50
2019-03-10T18:45:47.475Z,7.35
2019-03-10T18:48:18.851Z,6.15
2019-03-10T18:50:49.173Z,6.58
2019-03-10T18:53:19.568Z,6.70
2019-03-10T18:55:49.912Z,8.48
2019-03-10T18:58:20.292Z,9.28
2019-03-10T19:00:50.638Z,11.35
2019-03-10T19:03:21.403Z,10.50
2019-03-10T19:05:51.951Z,9.13
2019-03-10T19:08:22.342Z,10.30
2019-03-10T19:10:52.680Z,9.70
2019-03-10T19:13:23.063Z,10.50
2019-03-10T19:15:53.433Z,10.50
2019-03-10T19:18:23.821Z,11.00
2019-03-10T19:20:54.169Z,8.30
2019-03-10T19:23:24.550Z,8.58
2019-03-10T19:25:54.931Z,9.30
2019-03-10T19:28:25.286Z,12.10
2019-03-10T19:30:55.699Z,8.25
2019-03-10T19:33:26.016Z,8.25
2019-03-10T19:35:56.409Z,8.00
2019-03-10T19:38:26.746Z,7.15
2019-03-10T19:40:57.130Z,6.87
2019-03-10T19:43:27.486Z,7.42
2019-03-10T19:45:57.855Z,8.98
2019-03-10T19:48:28.203Z,7.45
2019-03-10T19:50:58.580Z,10.75
2019-03-10T19:53:28.930Z,7.53
2019-03-10T19:55:59.310Z,7.28
2019-03-10T19:58:29.663Z,6.62
2019-03-10T20:01:00.043Z,5.42
2019-03-10T20:03:30.393Z,8.53
2019-03-10T20:06:00.840Z,6.50
2019-03-10T20:08:31.196Z,4.62
2019-03-10T20:11:02.654Z,6.53
2019-03-10T20:13:33.004Z,7.70
2019-03-10T20:16:03.465Z,4.55
2019-03-10T20:18:33.815Z,5.17
2019-03-10T20:21:04.202Z,8.53
2019-03-10T20:23:34.543Z,5.65
2019-03-10T20:26:04.923Z,5.10
2019-03-10T20:28:35.276Z,4.83
2019-03-10T20:31:05.652Z,4.72
2019-03-10T20:33:35.998Z,4.75
2019-03-10T20:36:06.381Z,4.65
2019-03-10T20:38:36.727Z,5.20
2019-03-10T20:41:07.106Z,5.17
2019-03-10T20:43:37.454Z,6.35
2019-03-10T20:46:07.834Z,4.17
2019-03-10T20:48:38.190Z,6.95
2019-03-10T20:51:08.556Z,6.40
2019-03-10T20:53:39.068Z,7.92
2019-03-10T20:56:09.447Z,6.37
2019-03-10T20:58:39.876Z,8.40
2019-03-10T21:01:10.307Z,7.55
2019-03-10T21:03:40.607Z,7.00
2019-03-10T21:06:10.983Z,8.98
2019-03-10T21:08:41.336Z,11.97
2019-03-10T21:11:12.559Z,8.25
2019-03-10T21:13:43.050Z,7.67
2019-03-10T21:16:13.439Z,7.62
2019-03-10T21:18:43.776Z,7.35
2019-03-10T21:21:15.565Z,7.85
2019-03-10T21:23:45.896Z,9.05
2019-03-10T21:26:16.280Z,8.53
2019-03-10T21:28:46.636Z,9.53
2019-03-10T21:31:17.011Z,8.85
2019-03-10T21:33:47.357Z,8.63
2019-03-10T21:36:17.734Z,11.57
2019-03-10T21:38:48.088Z,12.50
2019-03-10T21:41:18.467Z,10.63
2019-03-10T21:43:49.997Z,11.90
2019-03-10T21:46:20.443Z,9.00
2019-03-10T21:48:50.795Z,9.18
2019-03-10T21:51:21.175Z,9.53
2019-03-10T21:53:51.532Z,11.10
2019-03-10T21:56:21.913Z,12.05
2019-03-10T21:58:52.260Z,12.53
2019-03-10T22:01:29.246Z,13.18
2019-03-10T22:04:00.577Z,15.58
2019-03-10T22:09:32.484Z,16.42
2019-03-10T22:24:29.105Z,18.95
2019-03-10T22:33:20.488Z,19.32
2019-03-10T22:35:50.894Z,28.25
2019-03-10T22:38:21.253Z,24.35
2019-03-10T22:40:51.646Z,25.00
2019-03-10T22:43:22.013Z,26.95
2019-03-10T22:45:52.389Z,27.80
2019-03-10T22:48:22.921Z,25.37
2019-03-10T22:50:53.307Z,30.92
2019-03-10T22:53:23.738Z,27.10
2019-03-10T22:55:54.122Z,38.15
2019-03-10T22:58:24.485Z,31.48
2019-03-10T23:00:56.643Z,40.50
2019-03-10T23:03:27.190Z,25.48
2019-03-10T23:05:57.580Z,31.57
2019-03-10T23:08:27.941Z,29.12
2019-03-10T23:10:58.379Z,29.85
2019-03-10T23:13:28.742Z,27.35
2019-03-10T23:15:59.124Z,32.85
2019-03-10T23:18:29.484Z,28.57
2019-03-10T23:20:59.865Z,27.02
2019-03-10T23:23:30.236Z,29.02
2019-03-10T23:26:00.609Z,26.68
2019-03-10T23:28:30.971Z,19.75
2019-03-10T23:31:01.341Z,27.93
2019-03-10T23:33:31.695Z,25.48
2019-03-10T23:36:02.088Z,31.07
2019-03-10T23:38:32.448Z,29.12
2019-03-10T23:41:02.829Z,22.65
2019-03-10T23:43:33.187Z,28.60
2019-03-10T23:46:03.565Z,27.30
2019-03-10T23:48:33.919Z,21.97
2019-03-10T23:51:04.301Z,22.50
2019-03-10T23:53:34.826Z,25.97
2019-03-10T23:56:05.198Z,24.37
2019-03-10T23:58:35.554Z,22.45
